createdAt,value
2022-09-06T00:00:57.839Z,99081.25
2022-09-06T00:03:27.257Z,99077.09
2022-09-06T00:05:54.504Z,99067.38
2022-09-06T00:08:21.967Z,99050.13
2022-09-06T00:11:00.401Z,99068.22
2022-09-06T00:13:28.621Z,99068.09
2022-09-06T00:15:57.081Z,99077.56
2022-09-06T00:18:24.082Z,99080.88
2022-09-06T00:20:50.977Z,99078.41
2022-09-06T00:23:17.935Z,99083.28
2022-09-06T00:25:45.071Z,99089.81
2022-09-06T00:28:11.961Z,99089.13
2022-09-06T00:30:38.854Z,99090.16
2022-09-06T00:33:07.338Z,99096.13
2022-09-06T00:35:34.294Z,99100.44
2022-09-06T00:38:01.867Z,99100.13
2022-09-06T00:40:32.514Z,99090.09
2022-09-06T00:42:59.426Z,99087.03
2022-09-06T00:45:28.901Z,99089.88
2022-09-06T00:47:58.696Z,99094.91
2022-09-06T00:50:28.147Z,99100.69
2022-09-06T00:52:55.424Z,99101.19
2022-09-06T00:55:22.667Z,99097.31
2022-09-06T00:57:51.591Z,99092.09
2022-09-06T01:00:20.683Z,99088.34
2022-09-06T01:02:49.029Z,99094.34
2022-09-06T01:05:17.026Z,99095.09
2022-09-06T01:08:04.658Z,99108.81
2022-09-06T01:10:58.845Z,99105.66
2022-09-06T01:13:35.738Z,99105.09
2022-09-06T01:16:12.029Z,99115.69
2022-09-06T01:18:55.704Z,99120.59
2022-09-06T01:21:40.267Z,99119.88
2022-09-06T01:24:42.178Z,99135.88
2022-09-06T01:27:27.108Z,99138.94
2022-09-06T01:30:02.274Z,99130.19
2022-09-06T01:32:34.342Z,99127.69
2022-09-06T01:35:07.459Z,99132.94
2022-09-06T01:37:34.571Z,99132.63
2022-09-06T01:40:01.664Z,99143.91
2022-09-06T01:42:31.733Z,99141.28
2022-09-06T01:45:01.901Z,99151.31
2022-09-06T01:47:38.176Z,99143.25
2022-09-06T01:50:24.037Z,99146.81
2022-09-06T01:53:02.426Z,99141.00
2022-09-06T01:55:35.587Z,99144.75
2022-09-06T01:58:18.076Z,99155.88
2022-09-06T02:00:55.175Z,99151.16
2022-09-06T02:03:30.094Z,99149.72
2022-09-06T02:06:03.511Z,99143.81
2022-09-06T02:08:34.699Z,99135.03
2022-09-06T02:11:04.214Z,99130.91
2022-09-06T02:13:35.128Z,99134.09
2022-09-06T02:16:06.614Z,99136.94
2022-09-06T02:18:35.324Z,99140.94
2022-09-06T02:21:04.371Z,99137.72
2022-09-06T02:23:35.778Z,99134.69
2022-09-06T02:26:07.451Z,99137.53
2022-09-06T02:28:34.539Z,99140.19
2022-09-06T02:31:07.981Z,99140.69
2022-09-06T02:33:35.851Z,99131.84
2022-09-06T02:39:10.062Z,99128.00
2022-09-06T02:41:38.019Z,99117.31
2022-09-06T02:44:04.991Z,99115.81
2022-09-06T02:46:33.532Z,99109.13
2022-09-06T02:49:00.679Z,99101.84
2022-09-06T02:51:27.753Z,99106.72
2022-09-06T02:53:54.895Z,99104.50
2022-09-06T02:56:21.991Z,99096.09
2022-09-06T02:58:52.312Z,99092.63
2022-09-06T03:01:19.440Z,99097.25
2022-09-06T03:03:47.908Z,99105.00
2022-09-06T03:06:14.890Z,99100.94
2022-09-06T03:08:41.864Z,99104.03
2022-09-06T03:11:09.230Z,99100.69
2022-09-06T03:13:36.346Z,99102.25
2022-09-06T03:16:03.491Z,99099.31
2022-09-06T03:18:31.602Z,99097.84
2022-09-06T03:21:00.029Z,99099.41
2022-09-06T03:23:28.846Z,99102.63
2022-09-06T03:25:56.358Z,99092.97
2022-09-06T03:28:23.808Z,99097.03
2022-09-06T03:30:52.759Z,99097.56
2022-09-06T03:33:20.574Z,99099.78
2022-09-06T03:35:49.099Z,99099.31
2022-09-06T03:38:17.892Z,99103.09
2022-09-06T03:40:46.323Z,99105.75
2022-09-06T03:43:13.701Z,99106.16
2022-09-06T03:45:44.469Z,99104.47
2022-09-06T03:48:11.571Z,99103.84
2022-09-06T03:50:38.525Z,99113.31
2022-09-06T03:53:05.581Z,99111.47
2022-09-06T03:55:33.979Z,99114.69
2022-09-06T03:58:00.959Z,99122.03
2022-09-06T04:00:28.066Z,99109.00
2022-09-06T04:02:58.558Z,99114.78
2022-09-06T04:05:28.107Z,99113.75
2022-09-06T04:07:55.171Z,99111.09
2022-09-06T04:10:22.157Z,99105.13
2022-09-06T04:12:50.560Z,99100.34
2022-09-06T04:15:17.642Z,99102.09
2022-09-06T04:17:47.971Z,99101.69
2022-09-06T04:20:15.671Z,99105.47
2022-09-06T04:22:42.908Z,99102.25
2022-09-06T04:25:12.885Z,99109.88
2022-09-06T04:27:39.924Z,99109.22
2022-09-06T04:30:09.596Z,99109.41
2022-09-06T04:32:36.597Z,99109.41
2022-09-06T04:35:04.096Z,99114.25
2022-09-06T04:37:31.194Z,99108.91
2022-09-06T04:39:58.278Z,99127.09
2022-09-06T04:42:25.328Z,99117.63
2022-09-06T04:44:52.332Z,99116.06
2022-09-06T04:47:21.082Z,99120.28
2022-09-06T04:49:50.543Z,99118.25
2022-09-06T04:52:17.782Z,99126.81
2022-09-06T04:54:45.625Z,99131.03
2022-09-06T04:57:12.711Z,99120.16
2022-09-06T04:59:39.711Z,99110.38
2022-09-06T05:02:06.791Z,99108.53
2022-09-06T05:04:35.252Z,99100.97
2022-09-06T05:07:03.173Z,99101.69
2022-09-06T05:09:30.537Z,99100.94
2022-09-06T05:11:57.689Z,99105.91
2022-09-06T05:14:24.825Z,99088.25
2022-09-06T05:16:51.976Z,99072.41
2022-09-06T05:19:19.269Z,99083.72
2022-09-06T05:21:47.860Z,99079.66
2022-09-06T05:24:14.835Z,99070.19
2022-09-06T05:26:41.837Z,99068.13
2022-09-06T05:29:08.916Z,99073.09
2022-09-06T05:31:36.423Z,99073.09
2022-09-06T05:34:03.474Z,99077.22
2022-09-06T05:36:31.359Z,99076.53
2022-09-06T05:39:00.193Z,99085.44
2022-09-06T05:41:27.925Z,99089.41
2022-09-06T05:43:55.247Z,99092.44
2022-09-06T05:46:22.295Z,99096.19
2022-09-06T05:48:53.520Z,99088.19
2022-09-06T05:51:20.559Z,99086.66
2022-09-06T05:53:47.879Z,99092.28
2022-09-06T05:56:17.141Z,99089.81
2022-09-06T05:58:44.396Z,99106.34
2022-09-06T06:01:17.378Z,99110.44
2022-09-06T06:03:51.117Z,99112.78
2022-09-06T06:06:18.915Z,99116.47
2022-09-06T06:08:46.176Z,99111.00
2022-09-06T06:11:13.730Z,99109.84
2022-09-06T06:13:43.371Z,99115.16
2022-09-06T06:16:11.623Z,99116.06
2022-09-06T06:18:39.051Z,99116.25
2022-09-06T06:21:14.034Z,99112.19
2022-09-06T06:23:42.209Z,99124.47
2022-09-06T06:26:10.175Z,99119.72
2022-09-06T06:28:37.756Z,99122.00
2022-09-06T06:31:07.695Z,99124.47
2022-09-06T06:33:36.322Z,99121.09
2022-09-06T06:36:05.438Z,99120.00
2022-09-06T06:38:33.411Z,99138.09
2022-09-06T06:41:05.844Z,99134.63
2022-09-06T06:43:38.046Z,99140.41
2022-09-06T06:46:07.285Z,99142.22
2022-09-06T06:48:35.102Z,99139.75
2022-09-06T06:51:02.264Z,99141.44
2022-09-06T06:53:29.192Z,99146.97
2022-09-06T06:55:56.099Z,99144.91
2022-09-06T06:58:23.014Z,99146.78
2022-09-06T07:00:49.955Z,99147.19
2022-09-06T07:03:18.451Z,99142.84
2022-09-06T07:08:37.131Z,99145.19
2022-09-06T07:11:04.853Z,99147.88
2022-09-06T07:13:31.968Z,99144.63
2022-09-06T07:16:10.366Z,99145.88
2022-09-06T07:18:42.136Z,99141.78
2022-09-06T07:24:05.977Z,99140.16
2022-09-06T07:26:34.633Z,99145.94
2022-09-06T07:29:03.100Z,99136.75
2022-09-06T07:34:20.696Z,99135.47
2022-09-06T07:36:48.448Z,99136.25
2022-09-06T07:39:15.389Z,99129.38
2022-09-06T07:41:43.703Z,99128.13
2022-09-06T07:44:10.665Z,99134.72
2022-09-06T07:46:38.169Z,99137.63
2022-09-06T07:49:06.070Z,99136.69
2022-09-06T07:51:34.462Z,99130.00
2022-09-06T07:54:31.028Z,99131.63
2022-09-06T07:56:49.021Z,99130.00
2022-09-06T07:59:16.102Z,99124.94
2022-09-06T08:01:43.118Z,99134.94
2022-09-06T08:04:15.708Z,99128.38
2022-09-06T08:09:33.790Z,99134.25
2022-09-06T08:12:06.655Z,99133.72
2022-09-06T08:14:33.874Z,99135.75
2022-09-06T08:17:00.852Z,99137.03
2022-09-06T08:19:28.613Z,99139.94
2022-09-06T08:21:57.136Z,99145.25
2022-09-06T08:24:24.099Z,99140.13
2022-09-06T08:26:51.100Z,99138.19
2022-09-06T08:29:21.966Z,99132.84
2022-09-06T08:31:49.290Z,99128.63
2022-09-06T08:34:16.458Z,99127.81
2022-09-06T08:36:45.425Z,99137.03
2022-09-06T08:39:13.753Z,99125.69
2022-09-06T08:41:48.860Z,99125.22
2022-09-06T08:47:08.872Z,99126.56
2022-09-06T08:49:38.533Z,99127.28
2022-09-06T08:53:06.514Z,99123.69
2022-09-06T08:55:44.271Z,99124.56
2022-09-06T08:58:26.034Z,99124.25
2022-09-06T09:00:58.752Z,99129.31
2022-09-06T09:03:31.858Z,99124.88
2022-09-06T09:06:00.091Z,99118.63
2022-09-06T09:08:32.061Z,99116.41
2022-09-06T09:11:03.744Z,99117.69
2022-09-06T09:13:35.123Z,99108.88
2022-09-06T09:16:02.796Z,99109.50
2022-09-06T09:18:33.576Z,99105.69
2022-09-06T09:21:00.696Z,99108.88
2022-09-06T09:23:29.038Z,99102.38
2022-09-06T09:26:02.438Z,99098.91
2022-09-06T09:28:29.536Z,99109.66
2022-09-06T09:30:57.276Z,99096.22
2022-09-06T09:33:28.589Z,99108.69
2022-09-06T09:35:57.037Z,99102.97
2022-09-06T09:38:27.068Z,99103.19
2022-09-06T09:40:55.725Z,99106.03
2022-09-06T09:43:25.828Z,99108.09
2022-09-06T09:46:11.580Z,99113.72
2022-09-06T09:48:39.271Z,99108.63
2022-09-06T09:51:27.021Z,99110.41
2022-09-06T09:53:55.806Z,99105.22
2022-09-06T09:56:28.714Z,99100.50
2022-09-06T09:58:59.047Z,99094.16
2022-09-06T10:01:29.224Z,99088.97
2022-09-06T10:09:37.224Z,99088.25
2022-09-06T10:12:04.997Z,99062.81
2022-09-06T10:14:41.110Z,99058.22
2022-09-06T10:17:08.049Z,99062.41
2022-09-06T10:19:39.611Z,99053.63
2022-09-06T10:22:21.130Z,99056.41
2022-09-06T10:25:12.912Z,99050.13
2022-09-06T10:28:10.368Z,99046.16
2022-09-06T10:30:46.648Z,99045.69
2022-09-06T10:33:25.563Z,99046.59
2022-09-06T10:35:53.211Z,99042.22
2022-09-06T10:38:36.482Z,99040.19
2022-09-06T10:41:23.906Z,99036.16
2022-09-06T10:44:00.214Z,99035.97
2022-09-06T10:46:33.702Z,99029.56
2022-09-06T10:49:00.770Z,99031.81
2022-09-06T10:51:36.415Z,99027.50
2022-09-06T10:54:08.705Z,99021.94
2022-09-06T10:56:43.610Z,99025.28
2022-09-06T11:02:16.361Z,99021.03
2022-09-06T11:07:37.951Z,99008.50
2022-09-06T11:10:13.064Z,99016.66
2022-09-06T11:12:48.844Z,99011.50
2022-09-06T11:15:18.176Z,99010.69
2022-09-06T11:17:53.404Z,99006.56
2022-09-06T11:20:32.167Z,99011.31
2022-09-06T11:23:23.842Z,99016.63
2022-09-06T11:26:36.467Z,99005.81
2022-09-06T11:29:06.891Z,99003.34
2022-09-06T11:34:38.155Z,99015.00
2022-09-06T11:37:07.294Z,99018.44
2022-09-06T11:43:03.884Z,99020.94
2022-09-06T11:45:43.561Z,99023.56
2022-09-06T11:48:34.585Z,99022.28
2022-09-06T11:51:06.818Z,99029.06
2022-09-06T11:53:55.703Z,99029.44
2022-09-06T11:56:31.575Z,99026.97
2022-09-06T11:59:05.753Z,99022.78
2022-09-06T12:01:38.081Z,99024.09
2022-09-06T12:04:10.131Z,99014.84
2022-09-06T12:06:41.918Z,99013.00
2022-09-06T12:09:29.026Z,99013.75
2022-09-06T12:11:56.691Z,99015.44
2022-09-06T12:14:31.354Z,99010.56
2022-09-06T12:17:19.893Z,99007.84
2022-09-06T12:19:48.694Z,99005.09
2022-09-06T12:23:01.616Z,99007.94
2022-09-06T12:25:58.575Z,98999.84
2022-09-06T12:28:31.790Z,98999.31
2022-09-06T12:30:59.586Z,99001.22
2022-09-06T12:33:31.137Z,98988.13
2022-09-06T12:36:13.207Z,98996.34
2022-09-06T12:38:40.260Z,98986.75
2022-09-06T12:41:08.896Z,98986.34
2022-09-06T12:43:39.249Z,98987.72
2022-09-06T12:46:07.990Z,98990.28
2022-09-06T12:48:39.115Z,98979.75
2022-09-06T12:51:08.097Z,98982.66
2022-09-06T12:53:35.414Z,98983.38
2022-09-06T12:56:05.353Z,98973.28
2022-09-06T12:58:33.841Z,98971.56
2022-09-06T13:01:08.635Z,98974.75
2022-09-06T13:03:40.194Z,98973.31
2022-09-06T13:06:08.216Z,98962.28
2022-09-06T13:08:42.231Z,98959.69
2022-09-06T13:11:13.579Z,98952.53
2022-09-06T13:13:48.566Z,98954.75
2022-09-06T13:16:20.916Z,98947.09
2022-09-06T13:18:48.038Z,98934.50
2022-09-06T13:21:25.434Z,98926.75
2022-09-06T13:23:52.563Z,98940.25
2022-09-06T13:26:33.194Z,98933.63
2022-09-06T13:29:11.322Z,98931.44
2022-09-06T13:31:38.439Z,98926.84
2022-09-06T13:34:05.870Z,98927.66
2022-09-06T13:36:33.770Z,98918.88
2022-09-06T13:39:03.785Z,98931.69
2022-09-06T13:41:41.316Z,98918.88
2022-09-06T13:44:21.984Z,98924.03
2022-09-06T13:46:53.525Z,98919.22
2022-09-06T13:49:20.548Z,98907.38
2022-09-06T13:51:47.454Z,98902.91
2022-09-06T13:54:15.815Z,98901.22
2022-09-06T13:56:44.814Z,98904.00
2022-09-06T13:59:12.719Z,98894.63
2022-09-06T14:01:44.816Z,98898.97
2022-09-06T14:04:14.711Z,98895.34
2022-09-06T14:06:41.855Z,98886.66
2022-09-06T14:09:09.312Z,98890.09
2022-09-06T14:11:37.566Z,98885.31
2022-09-06T14:14:05.081Z,98891.22
2022-09-06T14:16:33.252Z,98888.72
2022-09-06T14:19:01.735Z,98889.59
2022-09-06T14:21:28.843Z,98885.13
2022-09-06T14:23:58.828Z,98886.41
2022-09-06T14:26:28.341Z,98887.50
2022-09-06T14:28:55.596Z,98887.59
2022-09-06T14:31:26.185Z,98881.91
2022-09-06T14:33:53.882Z,98886.25
2022-09-06T14:36:24.883Z,98870.78
2022-09-06T14:38:52.705Z,98872.34
2022-09-06T14:41:20.245Z,98866.81
2022-09-06T14:43:49.978Z,98861.47
2022-09-06T14:46:18.346Z,98857.13
2022-09-06T14:48:46.004Z,98851.97
2022-09-06T14:51:17.974Z,98855.47
2022-09-06T14:53:46.631Z,98837.53
2022-09-06T14:56:13.843Z,98839.69
2022-09-06T14:58:41.800Z,98837.00
2022-09-06T15:01:13.057Z,98839.19
2022-09-06T15:03:41.274Z,98832.63
2022-09-06T15:06:09.408Z,98837.50
2022-09-06T15:08:36.725Z,98831.03
2022-09-06T15:11:08.233Z,98829.38
2022-09-06T15:13:36.476Z,98821.75
2022-09-06T15:16:03.566Z,98819.34
2022-09-06T15:18:30.861Z,98808.19
2022-09-06T15:20:57.763Z,98808.69
2022-09-06T15:23:27.133Z,98803.81
2022-09-06T15:25:54.292Z,98803.75
2022-09-06T15:28:22.707Z,98800.84
2022-09-06T15:30:49.919Z,98796.72
2022-09-06T15:33:17.035Z,98791.28
2022-09-06T15:35:44.534Z,98777.66
2022-09-06T15:38:12.443Z,98785.56
2022-09-06T15:40:39.477Z,98780.94
2022-09-06T15:43:06.677Z,98776.59
2022-09-06T15:45:47.454Z,98779.88
2022-09-06T15:48:15.983Z,98772.56
2022-09-06T15:50:51.338Z,98771.69
2022-09-06T15:53:18.924Z,98770.25
2022-09-06T15:55:58.026Z,98756.59
2022-09-06T15:58:25.479Z,98760.13
2022-09-06T16:01:08.883Z,98754.41
2022-09-06T16:03:37.645Z,98765.56
2022-09-06T16:08:55.382Z,98759.06
2022-09-06T16:11:22.399Z,98765.25
2022-09-06T16:13:49.545Z,98754.97
2022-09-06T16:16:18.120Z,98760.31
2022-09-06T16:18:47.351Z,98747.63
2022-09-06T16:21:16.659Z,98751.81
2022-09-06T16:23:48.448Z,98756.66
2022-09-06T16:26:20.591Z,98755.56
2022-09-06T16:28:50.026Z,98754.53
2022-09-06T16:31:19.673Z,98746.91
2022-09-06T16:33:48.784Z,98745.53
2022-09-06T16:36:16.774Z,98754.13
2022-09-06T16:38:44.157Z,98749.03
2022-09-06T16:41:14.462Z,98745.84
2022-09-06T16:43:41.957Z,98740.88
2022-09-06T16:46:09.962Z,98744.69
2022-09-06T16:48:40.702Z,98738.13
2022-09-06T16:51:13.357Z,98737.88
2022-09-06T16:53:41.843Z,98740.47
2022-09-06T16:56:09.507Z,98740.22
2022-09-06T16:58:36.663Z,98747.75
2022-09-06T17:01:03.621Z,98741.63
2022-09-06T17:03:30.852Z,98745.59
2022-09-06T17:05:59.197Z,98738.31
2022-09-06T17:08:26.369Z,98735.03
2022-09-06T17:10:53.643Z,98734.53
2022-09-06T17:13:20.615Z,98730.69
2022-09-06T17:16:13.682Z,98733.38
2022-09-06T17:18:40.924Z,98730.84
2022-09-06T17:21:09.313Z,98729.53
2022-09-06T17:23:37.343Z,98729.75
2022-09-06T17:26:04.948Z,98724.78
2022-09-06T17:28:33.635Z,98724.66
2022-09-06T17:31:02.156Z,98715.91
2022-09-06T17:33:30.414Z,98719.84
2022-09-06T17:36:06.141Z,98722.22
2022-09-06T17:38:35.150Z,98736.47
2022-09-06T17:41:02.479Z,98733.84
2022-09-06T17:43:29.554Z,98736.78
2022-09-06T17:45:56.652Z,98736.34
2022-09-06T17:48:25.051Z,98738.00
2022-09-06T17:50:53.779Z,98740.41
2022-09-06T17:53:20.747Z,98740.28
2022-09-06T17:55:52.122Z,98741.66
2022-09-06T17:58:19.974Z,98738.41
2022-09-06T18:00:47.041Z,98735.53
2022-09-06T18:03:14.599Z,98736.34
2022-09-06T18:05:41.829Z,98742.19
2022-09-06T18:08:09.375Z,98735.63
2022-09-06T18:10:37.477Z,98735.53
2022-09-06T18:13:06.466Z,98735.09
2022-09-06T18:15:38.529Z,98743.25
2022-09-06T18:18:05.801Z,98735.31
2022-09-06T18:20:32.832Z,98730.09
2022-09-06T18:23:00.395Z,98729.91
2022-09-06T18:25:28.595Z,98729.22
2022-09-06T18:27:55.630Z,98729.28
2022-09-06T18:30:24.007Z,98721.63
2022-09-06T18:32:51.170Z,98712.41
2022-09-06T18:35:18.176Z,98722.28
2022-09-06T18:37:45.244Z,98715.66
2022-09-06T18:40:12.272Z,98722.78
2022-09-06T18:42:43.112Z,98715.06
2022-09-06T18:45:11.165Z,98707.06
2022-09-06T18:47:39.850Z,98713.63
2022-09-06T18:50:08.132Z,98714.38
2022-09-06T18:52:35.395Z,98720.84
2022-09-06T18:55:02.394Z,98716.56
2022-09-06T18:57:30.703Z,98726.34
2022-09-06T18:59:58.164Z,98717.41
2022-09-06T19:02:26.355Z,98712.16
2022-09-06T19:04:56.092Z,98707.84
2022-09-06T19:07:23.211Z,98705.88
2022-09-06T19:09:53.373Z,98698.38
2022-09-06T19:12:20.396Z,98709.03
2022-09-06T19:14:50.337Z,98705.84
2022-09-06T19:17:17.362Z,98705.84
2022-09-06T19:19:44.361Z,98708.19
2022-09-06T19:22:12.881Z,98708.78
2022-09-06T19:24:40.463Z,98702.94
2022-09-06T19:27:08.147Z,98709.72
2022-09-06T19:29:35.116Z,98716.63
2022-09-06T19:32:02.831Z,98736.16
2022-09-06T19:34:30.209Z,98736.81
2022-09-06T19:36:57.298Z,98741.00
2022-09-06T19:39:34.785Z,98735.84
2022-09-06T19:42:04.469Z,98751.88
2022-09-06T19:44:32.617Z,98751.03
2022-09-06T19:47:00.254Z,98756.19
2022-09-06T19:49:27.297Z,98752.09
2022-09-06T19:51:54.238Z,98761.44
2022-09-06T19:54:21.181Z,98759.09
2022-09-06T19:56:49.475Z,98754.69
2022-09-06T19:59:16.522Z,98763.44
2022-09-06T20:01:45.398Z,98746.59
2022-09-06T20:04:13.851Z,98731.97
2022-09-06T20:06:41.085Z,98741.44
2022-09-06T20:09:10.445Z,98731.13
2022-09-06T20:11:38.631Z,98732.31
2022-09-06T20:14:07.055Z,98727.78
2022-09-06T20:16:38.163Z,98734.00
2022-09-06T20:19:07.820Z,98728.41
2022-09-06T20:21:34.747Z,98728.41
2022-09-06T20:24:02.120Z,98730.53
2022-09-06T20:26:30.440Z,98739.16
2022-09-06T20:28:59.163Z,98745.66
2022-09-06T20:31:28.960Z,98741.84
2022-09-06T20:33:56.759Z,98745.50
2022-09-06T20:36:23.796Z,98758.69
2022-09-06T20:38:50.864Z,98765.28
2022-09-06T20:41:19.454Z,98756.41
2022-09-06T20:43:50.878Z,98767.91
2022-09-06T20:46:19.258Z,98770.38
2022-09-06T20:48:48.046Z,98767.69
2022-09-06T20:51:18.943Z,98757.75
2022-09-06T20:53:46.711Z,98750.84
2022-09-06T20:56:15.575Z,98748.72
2022-09-06T20:58:42.967Z,98743.81
2022-09-06T21:01:11.980Z,98739.81
2022-09-06T21:03:41.126Z,98738.16
2022-09-06T21:06:11.010Z,98747.19
2022-09-06T21:08:42.594Z,98741.13
2022-09-06T21:11:10.276Z,98731.16
2022-09-06T21:13:37.997Z,98728.94
2022-09-06T21:16:05.740Z,98727.63
2022-09-06T21:18:34.036Z,98728.56
2022-09-06T21:21:02.659Z,98720.59
2022-09-06T21:23:33.322Z,98731.88
2022-09-06T21:26:02.029Z,98728.00
2022-09-06T21:28:30.532Z,98741.81
2022-09-06T21:31:02.301Z,98758.44
2022-09-06T21:33:30.078Z,98797.88
2022-09-06T21:36:03.652Z,98802.06
2022-09-06T21:38:32.460Z,98775.22
2022-09-06T21:40:59.678Z,98788.28
2022-09-06T21:43:26.844Z,98780.41
2022-09-06T21:45:53.809Z,98762.09
2022-09-06T21:48:20.877Z,98776.09
2022-09-06T21:50:47.922Z,98788.25
2022-09-06T21:53:15.485Z,98791.09
2022-09-06T21:55:45.098Z,98786.44
2022-09-06T21:58:13.204Z,98782.00
2022-09-06T22:00:41.438Z,98786.63
2022-09-06T22:03:09.331Z,98794.53
2022-09-06T22:05:36.295Z,98801.47
2022-09-06T22:08:03.643Z,98792.34
2022-09-06T22:10:30.618Z,98789.53
2022-09-06T22:12:58.948Z,98778.47
2022-09-06T22:15:25.924Z,98781.88
2022-09-06T22:17:52.952Z,98783.50
2022-09-06T22:20:21.168Z,98782.03
2022-09-06T22:22:48.546Z,98777.06
2022-09-06T22:25:15.890Z,98778.53
2022-09-06T22:27:42.900Z,98789.50
2022-09-06T22:30:12.590Z,98784.66
2022-09-06T22:32:40.050Z,98781.28
2022-09-06T22:35:07.852Z,98790.19
2022-09-06T22:37:35.031Z,98802.56
2022-09-06T22:40:02.531Z,98804.50
2022-09-06T22:42:29.982Z,98824.59
2022-09-06T22:45:00.111Z,98869.16
2022-09-06T22:47:28.453Z,98946.44
2022-09-06T22:49:55.428Z,98956.78
2022-09-06T22:52:22.552Z,98950.41
2022-09-06T23:00:14.235Z,98879.56
2022-09-06T23:02:42.823Z,98864.16
2022-09-06T23:05:09.843Z,98845.84
2022-09-06T23:07:36.899Z,98831.25
2022-09-06T23:10:04.879Z,98811.75
2022-09-06T23:12:31.868Z,98804.53
2022-09-06T23:14:59.030Z,98788.47
2022-09-06T23:17:26.059Z,98782.72
2022-09-06T23:19:54.619Z,98789.91
2022-09-06T23:22:21.613Z,98790.78
2022-09-06T23:24:48.724Z,98770.22
2022-09-06T23:27:15.830Z,98765.47
2022-09-06T23:29:43.960Z,98772.66
2022-09-06T23:32:11.120Z,98771.66
2022-09-06T23:34:38.229Z,98772.44
2022-09-06T23:37:07.071Z,98783.53
2022-09-06T23:39:34.136Z,98776.53
2022-09-06T23:42:02.443Z,98769.09
2022-09-06T23:44:29.526Z,98770.78
2022-09-06T23:46:56.523Z,98772.81
2022-09-06T23:49:23.619Z,98777.06
2022-09-06T23:51:50.749Z,98775.63
2022-09-06T23:54:19.090Z,98779.69
2022-09-06T23:56:46.371Z,98784.03
2022-09-06T23:59:13.439Z,98784.28
